Time;durP1;ratioP1;P1;durP2;ratioP2;P2;SDS_P1;SDS_P2;PMS_P1;PMS_P2;Temp;Humidity;BMP_temperature;BMP_pressure;BME280_temperature;BME280_humidity;BME280_pressure;Samples;Min_cycle;Max_cycle;Signal;HPM_P1;HPM_P2
2023/03/22 00:01:11;;;;;;;6.23;5.40;;;13.30;99.90;;;;;;4914546;29;20984;-75
2023/03/22 00:03:36;;;;;;;6.47;5.87;;;13.40;99.90;;;;;;4913570;29;20446;-77
2023/03/22 00:06:02;;;;;;;6.23;5.77;;;13.40;99.90;;;;;;4916145;29;20465;-75
2023/03/22 00:08:28;;;;;;;7.73;6.00;;;13.40;99.90;;;;;;4914541;29;20204;-76
2023/03/22 00:10:54;;;;;;;6.40;5.87;;;13.50;99.90;;;;;;4912341;29;20438;-76
2023/03/22 00:13:20;;;;;;;6.57;6.00;;;13.50;99.90;;;;;;4905591;29;20622;-76
2023/03/22 00:15:47;;;;;;;6.97;6.30;;;13.40;99.90;;;;;;4909201;29;20445;-75
2023/03/22 00:18:17;;;;;;;6.37;5.87;;;13.50;99.90;;;;;;4919356;29;20429;-76
2023/03/22 00:20:52;;;;;;;6.33;5.73;;;13.40;99.90;;;;;;4901371;29;20412;-76
2023/03/22 00:23:19;;;;;;;8.03;6.20;;;13.40;99.90;;;;;;4906114;29;20529;-76
2023/03/22 00:25:45;;;;;;;7.00;6.30;;;13.50;99.90;;;;;;4903748;29;20482;-75
2023/03/22 00:28:12;;;;;;;6.27;5.77;;;13.40;99.90;;;;;;4921749;29;20431;-76
2023/03/22 00:30:38;;;;;;;6.60;5.90;;;13.20;99.90;;;;;;4905993;29;20861;-76
2023/03/22 00:33:04;;;;;;;6.20;5.63;;;13.30;99.90;;;;;;4905529;29;20780;-75
2023/03/22 00:35:30;;;;;;;6.60;5.90;;;13.30;99.90;;;;;;4902870;29;20421;-77
2023/03/22 00:37:56;;;;;;;6.00;5.50;;;13.40;99.90;;;;;;4921523;29;20428;-75
2023/03/22 00:40:22;;;;;;;6.70;6.20;;;13.50;99.90;;;;;;4906993;29;20945;-76
2023/03/22 00:42:48;;;;;;;7.07;6.40;;;13.60;99.90;;;;;;4902966;29;20182;-77
2023/03/22 00:45:14;;;;;;;6.17;5.77;;;13.60;99.90;;;;;;4907292;29;20863;-76
2023/03/22 00:47:40;;;;;;;8.47;5.90;;;13.60;99.90;;;;;;4908718;29;20436;-77
2023/03/22 00:50:06;;;;;;;6.97;6.37;;;13.60;99.90;;;;;;4910964;29;20445;-76
2023/03/22 00:52:32;;;;;;;7.53;6.77;;;13.60;99.90;;;;;;4928821;29;20209;-77
2023/03/22 00:54:58;;;;;;;7.17;6.43;;;13.70;99.90;;;;;;4912612;29;20953;-76
2023/03/22 00:57:24;;;;;;;7.47;6.70;;;13.70;99.90;;;;;;4906795;29;20848;-76
2023/03/22 00:59:52;;;;;;;7.70;7.00;;;13.60;99.90;;;;;;4914823;29;20446;-76
2023/03/22 01:02:18;;;;;;;8.07;6.57;;;13.60;99.90;;;;;;4908747;29;20487;-76
2023/03/22 01:04:48;;;;;;;7.17;6.67;;;13.50;99.90;;;;;;4908174;29;21025;-77
2023/03/22 01:07:16;;;;;;;8.23;7.53;;;13.60;99.90;;;;;;4907343;29;20648;-76
2023/03/22 01:09:47;;;;;;;9.63;7.37;;;13.60;99.90;;;;;;4906153;29;20454;-75
2023/03/22 01:12:13;;;;;;;7.77;7.17;;;13.50;99.90;;;;;;4912402;29;20446;-76
2023/03/22 01:14:39;;;;;;;8.40;7.60;;;13.60;99.90;;;;;;4904112;29;20465;-77
2023/03/22 01:17:06;;;;;;;8.53;7.70;;;13.50;99.90;;;;;;4906736;29;20460;-76
2023/03/22 01:19:33;;;;;;;8.83;8.07;;;13.50;99.90;;;;;;4905935;29;20194;-76
2023/03/22 01:21:58;;;;;;;8.00;7.10;;;13.40;99.90;;;;;;4913012;29;20422;-76
2023/03/22 01:24:24;;;;;;;8.50;7.70;;;13.50;99.90;;;;;;4909291;29;20430;-76
2023/03/22 01:26:50;;;;;;;9.63;8.70;;;13.50;99.90;;;;;;4910901;29;20485;-76
2023/03/22 01:29:16;;;;;;;9.13;8.30;;;13.50;99.90;;;;;;4906245;29;20193;-76
2023/03/22 01:31:42;;;;;;;8.80;8.00;;;13.50;99.90;;;;;;4902954;29;20225;-76
2023/03/22 01:34:08;;;;;;;8.70;7.87;;;13.50;99.90;;;;;;4906565;29;20425;-76
2023/03/22 01:36:35;;;;;;;8.90;8.10;;;13.50;99.90;;;;;;4904301;29;20577;-77
2023/03/22 01:39:02;;;;;;;12.03;8.40;;;13.40;99.90;;;;;;4907127;29;20462;-76
2023/03/22 01:41:28;;;;;;;9.63;7.93;;;13.40;99.90;;;;;;4918900;29;20426;-76
2023/03/22 01:44:15;;;;;;;9.63;8.73;;;13.40;99.90;;;;;;4905702;29;21377;-76
2023/03/22 01:46:44;;;;;;;9.47;7.80;;;13.40;99.90;;;;;;4907667;29;20553;-76
2023/03/22 01:49:33;;;;;;;9.17;8.27;;;13.40;99.90;;;;;;4909326;29;20907;-76
2023/03/22 01:52:12;;;;;;;9.20;7.90;;;13.50;99.90;;;;;;4911584;29;20428;-76
2023/03/22 01:54:43;;;;;;;9.33;8.43;;;13.50;99.90;;;;;;4907911;29;20437;-76
2023/03/22 01:57:10;;;;;;;8.77;7.97;;;13.50;99.90;;;;;;4909148;29;20428;-76
2023/03/22 01:59:36;;;;;;;8.67;7.87;;;13.50;99.90;;;;;;4908045;29;20410;-77
2023/03/22 02:02:03;;;;;;;8.07;7.30;;;13.60;99.90;;;;;;4927744;29;20850;-76
2023/03/22 02:04:37;;;;;;;10.47;8.47;;;13.50;99.90;;;;;;4916539;29;20576;-75
2023/03/22 02:07:15;;;;;;;9.10;8.20;;;13.50;99.90;;;;;;4917990;29;20914;-76
2023/03/22 02:09:41;;;;;;;7.90;7.10;;;13.60;99.90;;;;;;4916116;29;20450;-76
2023/03/22 02:12:40;;;;;;;9.13;8.23;;;13.50;99.90;;;;;;4915829;29;20536;-75
2023/03/22 02:15:12;;;;;;;9.97;8.87;;;13.50;99.90;;;;;;4907443;29;20426;-76
2023/03/22 02:18:05;;;;;;;9.80;8.37;;;13.50;99.90;;;;;;4899061;29;20440;-76
2023/03/22 02:21:08;;;;;;;9.10;8.17;;;13.60;99.90;;;;;;4916370;29;20544;-75
2023/03/22 02:23:55;;;;;;;9.00;8.10;;;13.50;99.90;;;;;;4917546;29;20440;-76
2023/03/22 02:26:58;;;;;;;10.93;9.83;;;13.40;99.90;;;;;;4917467;29;20977;-76
2023/03/22 02:29:59;;;;;;;10.30;9.23;;;13.40;99.90;;;;;;4915738;29;20504;-76
2023/03/22 02:32:45;;;;;;;9.43;8.53;;;13.30;99.90;;;;;;4917635;29;20409;-76
2023/03/22 02:35:38;;;;;;;9.20;8.20;;;13.30;99.90;;;;;;4918124;29;20569;-76
2023/03/22 02:38:35;;;;;;;10.00;8.47;;;13.40;99.90;;;;;;4916306;29;20437;-76
2023/03/22 02:41:26;;;;;;;10.40;8.23;;;13.30;99.90;;;;;;4915237;29;20527;-76
2023/03/22 02:44:13;;;;;;;10.30;9.30;;;13.30;99.90;;;;;;4916806;29;20478;-77
2023/03/22 02:47:09;;;;;;;9.73;8.83;;;13.40;99.90;;;;;;4917416;29;20477;-77
2023/03/22 02:49:44;;;;;;;9.47;8.67;;;13.30;99.90;;;;;;4889425;29;20453;-76
2023/03/22 02:52:32;;;;;;;10.43;9.40;;;13.10;99.90;;;;;;4916765;29;20411;-76
2023/03/22 02:55:10;;;;;;;9.70;8.70;;;13.10;99.90;;;;;;4915117;29;20550;-75
2023/03/22 02:57:43;;;;;;;10.17;9.17;;;13.10;99.90;;;;;;4915213;29;20447;-76
2023/03/22 03:00:11;;;;;;;9.90;8.90;;;12.90;99.90;;;;;;4914809;29;20523;-76
2023/03/22 03:02:41;;;;;;;12.60;9.00;;;12.80;99.90;;;;;;4917351;29;20412;-77
2023/03/22 03:05:09;;;;;;;10.07;8.07;;;12.80;99.90;;;;;;4915560;29;20533;-76
2023/03/22 03:07:36;;;;;;;9.93;9.03;;;12.90;99.90;;;;;;4916612;29;20809;-76
2023/03/22 03:10:03;;;;;;;12.20;8.70;;;12.90;99.90;;;;;;4916031;29;20431;-77
2023/03/22 03:12:29;;;;;;;10.10;9.00;;;12.80;99.90;;;;;;4917425;29;20556;-76
2023/03/22 03:14:55;;;;;;;9.50;8.57;;;12.80;99.90;;;;;;4915941;29;20455;-77
2023/03/22 03:17:33;;;;;;;8.63;7.83;;;12.80;99.90;;;;;;4915918;29;21008;-76
2023/03/22 03:20:18;;;;;;;11.13;8.90;;;12.80;99.90;;;;;;4915530;29;20465;-77
2023/03/22 03:22:49;;;;;;;9.17;8.27;;;12.80;99.90;;;;;;4915687;29;20427;-77
2023/03/22 03:25:25;;;;;;;9.60;8.33;;;12.60;99.90;;;;;;4916807;29;20458;-76
2023/03/22 03:28:08;;;;;;;10.20;8.83;;;12.60;99.90;;;;;;4915921;29;20436;-77
2023/03/22 03:30:52;;;;;;;9.63;8.60;;;12.60;99.90;;;;;;4916782;29;20464;-77
2023/03/22 03:33:23;;;;;;;9.70;8.40;;;12.70;99.90;;;;;;4897969;29;20827;-76
2023/03/22 03:35:57;;;;;;;9.00;7.93;;;12.80;99.90;;;;;;4913752;29;20446;-76
2023/03/22 03:38:27;;;;;;;9.20;8.37;;;12.80;99.90;;;;;;4915784;29;20444;-76
2023/03/22 03:40:59;;;;;;;9.73;8.80;;;12.80;99.90;;;;;;4915597;29;20402;-76
2023/03/22 03:43:27;;;;;;;9.30;8.53;;;12.70;99.90;;;;;;4915405;29;20471;-76
2023/03/22 03:45:54;;;;;;;11.63;8.27;;;12.60;99.90;;;;;;4914788;29;20582;-76
2023/03/22 03:48:27;;;;;;;10.53;8.50;;;12.50;99.90;;;;;;4916180;29;20450;-76
2023/03/22 03:50:56;;;;;;;9.00;8.10;;;12.50;99.90;;;;;;4915865;29;20458;-76
2023/03/22 03:53:22;;;;;;;10.37;8.80;;;12.50;99.90;;;;;;4916095;29;20450;-76
2023/03/22 03:55:48;;;;;;;9.80;7.83;;;12.60;99.90;;;;;;4915286;29;20442;-76
2023/03/22 03:58:17;;;;;;;9.27;8.33;;;12.60;99.90;;;;;;4916323;29;20507;-77
2023/03/22 04:00:45;;;;;;;10.00;8.27;;;12.60;99.90;;;;;;4897283;29;20619;-77
2023/03/22 04:03:11;;;;;;;12.43;8.40;;;12.60;99.90;;;;;;4908246;29;20433;-76
2023/03/22 04:05:37;;;;;;;8.83;7.93;;;12.60;99.90;;;;;;4915105;29;20462;-76
2023/03/22 04:08:03;;;;;;;9.30;8.30;;;12.70;99.90;;;;;;4915769;29;20486;-76
2023/03/22 04:10:29;;;;;;;9.57;8.67;;;12.70;99.90;;;;;;4914602;29;20434;-76
2023/03/22 04:12:55;;;;;;;13.23;8.90;;;12.70;99.90;;;;;;4915304;29;20449;-76
2023/03/22 04:15:21;;;;;;;9.23;8.33;;;12.50;99.90;;;;;;4916467;29;20430;-76
2023/03/22 04:17:47;;;;;;;9.30;8.40;;;12.50;99.90;;;;;;4914267;29;20218;-76
2023/03/22 04:20:13;;;;;;;10.03;7.50;;;12.50;99.90;;;;;;4915821;29;20447;-76
2023/03/22 04:22:40;;;;;;;12.53;8.63;;;12.40;99.90;;;;;;4915142;29;20486;-76
2023/03/22 04:25:10;;;;;;;9.53;8.53;;;12.40;99.90;;;;;;4914671;29;20539;-76
2023/03/22 04:27:37;;;;;;;8.50;7.70;;;12.40;99.90;;;;;;4914445;29;20523;-76
2023/03/22 04:30:05;;;;;;;8.57;7.70;;;12.40;99.90;;;;;;4896301;29;20448;-76
2023/03/22 04:32:31;;;;;;;8.50;7.60;;;12.50;99.90;;;;;;4908617;29;20455;-76
2023/03/22 04:34:57;;;;;;;10.17;8.00;;;12.40;99.90;;;;;;4911634;29;20434;-76
2023/03/22 04:37:26;;;;;;;9.90;7.80;;;12.50;99.90;;;;;;4915640;29;20772;-76
2023/03/22 04:39:52;;;;;;;11.43;10.57;;;12.50;99.90;;;;;;4915200;29;20473;-76
2023/03/22 04:42:19;;;;;;;8.67;7.90;;;12.50;99.90;;;;;;4914685;29;20436;-76
2023/03/22 04:44:45;;;;;;;7.70;7.00;;;12.50;99.90;;;;;;4912871;29;20498;-77
2023/03/22 04:47:11;;;;;;;10.40;9.50;;;12.50;99.90;;;;;;4915375;29;20463;-76
2023/03/22 04:49:37;;;;;;;9.57;7.80;;;12.50;99.90;;;;;;4913669;29;21022;-76
2023/03/22 04:52:02;;;;;;;8.90;7.57;;;12.50;99.90;;;;;;4916840;29;20187;-76
2023/03/22 04:54:28;;;;;;;9.07;8.20;;;12.50;99.90;;;;;;4916535;29;20215;-76
2023/03/22 04:56:54;;;;;;;7.90;7.00;;;12.40;99.90;;;;;;4914662;29;20223;-76
2023/03/22 04:59:20;;;;;;;9.00;7.00;;;12.40;99.90;;;;;;4914771;29;20198;-76
2023/03/22 05:01:47;;;;;;;9.17;8.23;;;12.30;99.90;;;;;;4912810;29;20431;-77
2023/03/22 05:04:14;;;;;;;9.10;7.47;;;12.30;99.90;;;;;;4913819;29;20440;-76
2023/03/22 05:06:40;;;;;;;10.40;7.77;;;12.40;99.90;;;;;;4913752;29;20962;-77
2023/03/22 05:09:06;;;;;;;8.80;7.90;;;12.20;99.90;;;;;;4912063;29;20450;-76
2023/03/22 05:11:31;;;;;;;8.97;7.57;;;12.20;99.90;;;;;;4914347;29;20183;-76
2023/03/22 05:13:57;;;;;;;8.93;8.03;;;12.30;99.90;;;;;;4913791;29;20201;-76
2023/03/22 05:16:24;;;;;;;10.93;8.77;;;12.10;99.90;;;;;;4914525;29;20190;-76
2023/03/22 05:18:53;;;;;;;12.20;9.97;;;12.00;99.90;;;;;;4914651;29;20182;-77
2023/03/22 05:21:21;;;;;;;10.37;8.90;;;12.10;99.90;;;;;;4912536;29;20491;-77
2023/03/22 05:23:48;;;;;;;11.23;9.73;;;12.10;99.90;;;;;;4916445;29;20423;-76
2023/03/22 05:26:14;;;;;;;11.10;9.80;;;12.00;99.90;;;;;;4918794;29;20549;-76
2023/03/22 05:28:41;;;;;;;12.00;10.73;;;12.00;99.90;;;;;;4919307;29;20455;-77
2023/03/22 05:31:07;;;;;;;12.50;10.37;;;12.20;99.90;;;;;;4918617;29;21029;-77
2023/03/22 05:33:33;;;;;;;10.07;9.00;;;12.50;99.90;;;;;;4919315;29;20407;-76
2023/03/22 05:36:00;;;;;;;10.33;8.87;;;12.70;99.90;;;;;;4918563;29;20817;-76
2023/03/22 05:38:26;;;;;;;10.63;9.60;;;13.00;99.90;;;;;;4917831;29;20448;-77
2023/03/22 05:40:52;;;;;;;10.87;9.97;;;13.10;99.90;;;;;;4918317;29;20423;-77
2023/03/22 05:43:18;;;;;;;9.93;8.93;;;13.20;99.90;;;;;;4919080;29;20496;-76
2023/03/22 05:45:47;;;;;;;11.30;7.97;;;13.50;99.90;;;;;;4919013;29;20454;-76
2023/03/22 05:48:13;;;;;;;8.83;7.93;;;13.60;99.90;;;;;;4918620;29;20441;-76
2023/03/22 05:50:39;;;;;;;9.47;8.40;;;13.80;99.90;;;;;;4917981;29;20437;-76
2023/03/22 05:53:05;;;;;;;9.57;8.57;;;14.00;99.90;;;;;;4918704;29;20189;-76
2023/03/22 05:55:31;;;;;;;8.40;7.60;;;14.00;99.90;;;;;;4918400;29;20914;-76
2023/03/22 05:57:58;;;;;;;10.10;8.47;;;14.10;99.90;;;;;;4918069;29;20171;-77
2023/03/22 06:00:24;;;;;;;9.30;8.30;;;14.10;99.90;;;;;;4918768;29;20239;-77
2023/03/22 06:02:55;;;;;;;8.20;7.30;;;14.20;99.90;;;;;;4917974;29;20423;-77
2023/03/22 06:05:21;;;;;;;11.97;10.87;;;14.20;99.90;;;;;;4917565;29;20553;-76
2023/03/22 06:07:47;;;;;;;10.67;8.83;;;14.30;99.90;;;;;;4918606;29;20903;-77
2023/03/22 06:10:14;;;;;;;8.17;7.37;;;14.40;99.90;;;;;;4917941;29;20470;-77
2023/03/22 06:12:40;;;;;;;9.80;8.40;;;14.60;99.90;;;;;;4918509;29;20202;-77
2023/03/22 06:15:07;;;;;;;9.20;8.30;;;14.30;99.90;;;;;;4916456;29;20437;-77
2023/03/22 06:17:32;;;;;;;11.23;8.57;;;14.20;99.90;;;;;;4918406;29;20178;-77
2023/03/22 06:19:58;;;;;;;8.90;8.00;;;14.10;99.90;;;;;;4916253;29;20437;-77
2023/03/22 06:22:24;;;;;;;7.83;7.03;;;14.20;99.90;;;;;;4915179;29;20190;-77
2023/03/22 06:24:50;;;;;;;9.90;9.00;;;14.30;99.90;;;;;;4915044;29;20271;-77
2023/03/22 06:27:16;;;;;;;6.87;6.37;;;14.30;99.90;;;;;;4913071;29;20202;-76
2023/03/22 06:29:43;;;;;;;9.63;7.63;;;14.20;99.90;;;;;;4913074;29;20438;-77
2023/03/22 06:32:09;;;;;;;7.10;6.53;;;14.10;99.90;;;;;;4916773;29;20234;-76
2023/03/22 06:34:35;;;;;;;9.10;8.30;;;14.00;99.90;;;;;;4916518;29;20442;-76
2023/03/22 06:37:01;;;;;;;8.73;7.73;;;13.40;99.90;;;;;;4917536;29;20437;-76
2023/03/22 06:39:26;;;;;;;7.73;6.97;;;13.40;99.90;;;;;;4918348;29;20188;-76
2023/03/22 06:41:52;;;;;;;8.13;7.07;;;13.50;99.90;;;;;;4915030;29;20188;-77
2023/03/22 06:44:18;;;;;;;8.43;6.97;;;13.50;99.90;;;;;;4917799;29;20225;-76
2023/03/22 06:46:44;;;;;;;8.43;7.63;;;13.40;99.90;;;;;;4916955;29;21029;-76
2023/03/22 06:49:10;;;;;;;8.67;7.97;;;13.50;99.90;;;;;;4915448;29;20777;-78
2023/03/22 06:51:35;;;;;;;8.20;7.17;;;13.40;99.90;;;;;;4917121;29;20210;-79
2023/03/22 06:54:01;;;;;;;9.90;7.57;;;13.40;99.90;;;;;;4917653;29;20448;-79
2023/03/22 06:56:27;;;;;;;9.80;8.80;;;13.40;99.90;;;;;;4918072;29;20688;-77
2023/03/22 06:58:57;;;;;;;7.03;6.33;;;13.30;99.90;;;;;;4916309;29;20473;-77
2023/03/22 07:01:23;;;;;;;7.97;5.60;;;13.40;99.90;;;;;;4916135;29;20276;-77
2023/03/22 07:03:49;;;;;;;7.70;7.10;;;13.40;99.90;;;;;;4916626;29;20795;-78
2023/03/22 07:06:15;;;;;;;6.93;6.30;;;13.40;99.90;;;;;;4917173;29;20457;-80
2023/03/22 07:08:41;;;;;;;8.40;7.60;;;13.40;99.90;;;;;;4917048;29;20505;-78
2023/03/22 07:11:07;;;;;;;8.67;7.70;;;13.30;99.90;;;;;;4917516;29;20191;-78
2023/03/22 07:13:33;;;;;;;9.20;6.17;;;13.30;99.90;;;;;;4918295;29;20180;-78
2023/03/22 07:16:00;;;;;;;6.53;6.03;;;13.10;99.90;;;;;;4917172;29;20191;-78
2023/03/22 07:18:26;;;;;;;7.63;7.07;;;13.10;99.90;;;;;;4917831;29;20184;-78
2023/03/22 07:20:52;;;;;;;9.23;5.87;;;13.10;99.90;;;;;;4917211;29;20471;-78
2023/03/22 07:23:19;;;;;;;7.47;6.87;;;13.10;99.90;;;;;;4917591;29;20875;-78
2023/03/22 07:25:45;;;;;;;7.83;6.80;;;13.20;99.90;;;;;;4917094;29;20240;-78
2023/03/22 07:28:11;;;;;;;6.10;5.60;;;13.20;99.90;;;;;;4916721;29;20929;-78
2023/03/22 07:30:38;;;;;;;7.53;6.33;;;13.20;99.90;;;;;;4917728;29;20429;-78
2023/03/22 07:33:05;;;;;;;7.77;6.07;;;13.20;99.90;;;;;;4916842;29;20200;-78
2023/03/22 07:35:32;;;;;;;6.37;5.77;;;13.30;99.90;;;;;;4917529;29;20422;-78
2023/03/22 07:37:58;;;;;;;5.97;4.87;;;13.30;99.90;;;;;;4916089;29;20439;-78
2023/03/22 07:40:24;;;;;;;8.20;5.67;;;13.30;99.90;;;;;;4917406;29;20866;-78
2023/03/22 07:42:50;;;;;;;7.97;7.20;;;13.30;99.90;;;;;;4916847;29;20484;-78
2023/03/22 07:45:17;;;;;;;5.63;4.83;;;13.40;99.90;;;;;;4915528;29;20452;-78
2023/03/22 07:47:44;;;;;;;7.37;6.00;;;13.40;99.90;;;;;;4916603;29;20450;-78
2023/03/22 07:50:11;;;;;;;5.23;4.40;;;13.30;99.90;;;;;;4916173;29;20513;-79
2023/03/22 07:52:37;;;;;;;5.77;5.20;;;13.40;99.90;;;;;;4916767;29;20414;-79
2023/03/22 07:55:04;;;;;;;6.30;5.70;;;13.40;99.90;;;;;;4916492;29;20750;-79
2023/03/22 07:57:29;;;;;;;5.73;5.10;;;13.40;99.90;;;;;;4915796;29;20418;-79
2023/03/22 07:59:55;;;;;;;6.20;5.33;;;13.50;99.90;;;;;;4916413;29;20410;-79
2023/03/22 08:02:22;;;;;;;7.67;4.93;;;13.50;99.90;;;;;;4916277;29;20177;-79
2023/03/22 08:04:49;;;;;;;5.50;5.03;;;13.60;99.90;;;;;;4916839;29;20479;-78
2023/03/22 08:07:17;;;;;;;5.87;5.40;;;13.60;99.90;;;;;;4915184;29;20833;-79
2023/03/22 08:09:44;;;;;;;7.20;6.43;;;13.80;99.90;;;;;;4916893;29;20457;-79
2023/03/22 08:12:10;;;;;;;5.10;4.70;;;13.90;99.90;;;;;;4916241;29;20410;-79
2023/03/22 08:14:36;;;;;;;5.23;4.63;;;14.00;99.90;;;;;;4916575;29;20416;-79
2023/03/22 08:17:03;;;;;;;6.87;6.33;;;13.90;99.90;;;;;;4916202;29;20516;-79
2023/03/22 08:19:30;;;;;;;4.70;4.30;;;13.90;99.90;;;;;;4920439;29;20186;-79
2023/03/22 08:21:56;;;;;;;5.70;5.30;;;13.90;99.90;;;;;;4921204;29;20476;-80
2023/03/22 08:24:22;;;;;;;6.60;5.63;;;14.00;99.90;;;;;;4916968;29;20499;-79
2023/03/22 08:26:49;;;;;;;4.57;4.17;;;13.80;99.90;;;;;;4916700;29;20206;-79
2023/03/22 08:29:15;;;;;;;6.07;5.47;;;13.80;99.90;;;;;;4930881;29;20191;-79
2023/03/22 08:31:42;;;;;;;8.03;5.33;;;13.90;99.90;;;;;;4916326;29;20777;-79
2023/03/22 08:34:07;;;;;;;6.13;5.63;;;13.90;99.90;;;;;;4916177;29;20186;-79
2023/03/22 08:36:33;;;;;;;4.90;4.50;;;14.00;99.90;;;;;;4913782;29;20836;-78
2023/03/22 08:39:00;;;;;;;5.40;4.80;;;14.00;99.90;;;;;;4914791;29;20262;-79
2023/03/22 08:41:28;;;;;;;5.50;5.00;;;14.10;99.90;;;;;;4914396;29;20186;-79
2023/03/22 08:43:55;;;;;;;5.30;5.00;;;14.10;99.90;;;;;;4916849;29;20497;-79
2023/03/22 08:46:20;;;;;;;5.63;4.73;;;14.10;99.90;;;;;;4915749;29;20957;-79
2023/03/22 08:48:49;;;;;;;11.23;5.20;;;14.30;99.90;;;;;;4916457;29;20429;-79
2023/03/22 08:51:20;;;;;;;5.17;4.67;;;14.40;99.90;;;;;;4915811;29;20219;-79
2023/03/22 08:53:47;;;;;;;5.40;5.07;;;14.50;99.90;;;;;;4916088;29;20469;-79
2023/03/22 08:56:15;;;;;;;5.50;5.00;;;14.50;99.90;;;;;;4915720;29;20426;-79
2023/03/22 08:58:45;;;;;;;7.07;5.00;;;14.60;99.90;;;;;;4919950;29;20468;-79
2023/03/22 09:01:16;;;;;;;5.33;5.00;;;14.50;99.90;;;;;;4902634;29;20446;-79
2023/03/22 09:03:42;;;;;;;6.40;6.00;;;14.50;99.90;;;;;;4920189;29;20911;-79
2023/03/22 09:06:09;;;;;;;5.33;4.93;;;14.50;99.90;;;;;;4918760;29;20475;-78
2023/03/22 09:08:38;;;;;;;4.33;3.80;;;14.60;99.90;;;;;;4918761;29;20423;-79
2023/03/22 09:11:07;;;;;;;6.27;3.60;;;14.60;99.90;;;;;;4919622;29;20840;-79
2023/03/22 09:13:33;;;;;;;4.63;3.80;;;14.60;99.90;;;;;;4918520;29;20426;-78
2023/03/22 09:15:59;;;;;;;5.00;4.60;;;14.70;99.90;;;;;;4919407;29;20895;-79
2023/03/22 09:18:25;;;;;;;7.23;4.80;;;14.70;99.90;;;;;;4918560;29;20274;-79
2023/03/22 09:20:51;;;;;;;4.33;3.93;;;14.60;99.90;;;;;;4911914;29;20537;-79
2023/03/22 09:23:18;;;;;;;4.83;4.27;;;14.70;99.90;;;;;;4912893;29;20497;-79
2023/03/22 09:25:45;;;;;;;6.63;3.70;;;14.70;99.90;;;;;;4918446;29;20594;-78
2023/03/22 09:28:11;;;;;;;4.47;4.07;;;14.90;99.90;;;;;;4933721;29;20831;-79
2023/03/22 09:30:36;;;;;;;4.83;4.53;;;15.00;99.40;;;;;;4919455;29;20443;-79
2023/03/22 09:33:02;;;;;;;4.67;4.20;;;15.10;99.20;;;;;;4918493;29;20192;-78
2023/03/22 09:35:29;;;;;;;6.17;5.67;;;15.20;99.10;;;;;;4902342;29;20245;-79
2023/03/22 09:37:55;;;;;;;4.70;4.40;;;15.40;97.40;;;;;;4919528;29;20738;-79
2023/03/22 09:40:28;;;;;;;3.70;3.33;;;15.60;96.70;;;;;;4918651;29;20432;-79
2023/03/22 09:42:58;;;;;;;4.40;4.20;;;15.70;96.60;;;;;;4918454;29;20536;-79
2023/03/22 09:45:50;;;;;;;5.40;5.00;;;16.00;95.60;;;;;;4907910;29;20454;-79
2023/03/22 09:48:38;;;;;;;4.13;3.83;;;16.20;94.50;;;;;;4905514;29;20780;-79
2023/03/22 09:51:12;;;;;;;5.60;5.30;;;16.30;93.90;;;;;;4890925;29;20423;-79
2023/03/22 09:53:38;;;;;;;4.20;3.47;;;16.50;94.40;;;;;;4906076;29;20430;-79
2023/03/22 09:56:16;;;;;;;6.93;5.90;;;16.50;93.90;;;;;;4909484;29;20426;-79
2023/03/22 09:58:54;;;;;;;3.70;3.40;;;16.60;93.50;;;;;;4902184;29;20201;-79
2023/03/22 10:01:50;;;;;;;4.07;3.50;;;16.70;93.20;;;;;;4907293;29;20772;-78
2023/03/22 10:04:28;;;;;;;4.20;3.10;;;16.80;92.10;;;;;;4908346;29;20498;-78
2023/03/22 10:07:26;;;;;;;3.30;3.00;;;17.10;90.70;;;;;;4909561;29;20442;-78
2023/03/22 10:10:04;;;;;;;3.70;3.50;;;17.10;90.60;;;;;;4874538;29;20987;-78
2023/03/22 10:12:45;;;;;;;3.17;2.97;;;17.10;89.40;;;;;;4908385;29;20965;-79
2023/03/22 10:15:35;;;;;;;3.23;3.03;;;17.00;90.20;;;;;;4908270;29;20861;-79
2023/03/22 10:18:06;;;;;;;3.60;3.30;;;17.00;90.10;;;;;;4908183;29;20490;-79
2023/03/22 10:20:47;;;;;;;4.30;3.33;;;16.90;89.50;;;;;;4908895;29;20808;-79
2023/03/22 10:23:23;;;;;;;3.87;3.57;;;16.70;89.80;;;;;;4906473;29;20843;-79
2023/03/22 10:25:51;;;;;;;5.20;4.10;;;16.60;90.30;;;;;;4907373;29;20454;-79
2023/03/22 10:28:23;;;;;;;4.80;4.60;;;16.40;89.30;;;;;;4906935;29;20447;-79
2023/03/22 10:30:55;;;;;;;3.57;3.27;;;16.30;89.90;;;;;;4906177;29;20407;-79
2023/03/22 10:33:48;;;;;;;5.50;5.10;;;16.30;90.10;;;;;;4890808;29;20478;-78
2023/03/22 10:36:15;;;;;;;2.80;2.70;;;16.30;87.90;;;;;;4908299;29;20809;-79
2023/03/22 10:38:51;;;;;;;3.23;3.07;;;16.50;88.40;;;;;;4907321;29;20443;-79
2023/03/22 10:41:21;;;;;;;3.87;3.67;;;16.60;88.00;;;;;;4908418;29;20953;-79
2023/03/22 10:43:57;;;;;;;3.30;3.20;;;16.80;88.00;;;;;;4907917;29;20960;-79
2023/03/22 10:46:31;;;;;;;4.90;2.80;;;16.70;88.40;;;;;;4908018;29;20465;-79
2023/03/22 10:48:59;;;;;;;3.23;3.03;;;16.80;88.50;;;;;;4907563;29;20411;-79
2023/03/22 10:51:45;;;;;;;3.80;3.10;;;16.80;89.50;;;;;;4906924;29;20431;-79
2023/03/22 10:54:14;;;;;;;2.77;2.67;;;16.80;89.10;;;;;;4907606;29;20411;-79
2023/03/22 10:56:40;;;;;;;3.30;3.00;;;16.80;88.40;;;;;;4907085;29;20486;-79
2023/03/22 10:59:06;;;;;;;3.73;3.30;;;16.80;89.00;;;;;;4905078;29;20412;-79
2023/03/22 11:01:38;;;;;;;3.27;3.07;;;16.80;87.60;;;;;;4906847;29;20474;-79
2023/03/22 11:04:13;;;;;;;3.57;3.37;;;16.70;87.70;;;;;;4906598;29;20275;-79
2023/03/22 11:06:51;;;;;;;3.63;3.37;;;16.60;87.80;;;;;;4907984;29;20454;-79
2023/03/22 11:09:19;;;;;;;3.80;2.90;;;16.60;89.60;;;;;;4906423;29;20398;-78
2023/03/22 11:11:49;;;;;;;2.67;2.57;;;16.50;88.10;;;;;;4907094;29;20460;-79
2023/03/22 11:14:39;;;;;;;2.63;2.47;;;16.50;88.60;;;;;;4907542;29;20509;-79
2023/03/22 11:17:05;;;;;;;2.60;2.50;;;16.50;88.60;;;;;;4907220;29;20438;-79
2023/03/22 11:19:32;;;;;;;2.63;2.43;;;16.50;88.10;;;;;;4907827;29;20414;-78
2023/03/22 11:22:01;;;;;;;3.57;3.47;;;16.50;88.00;;;;;;4903918;29;20191;-78
2023/03/22 11:24:29;;;;;;;2.20;2.10;;;16.60;88.90;;;;;;4907256;29;20423;-77
2023/03/22 11:27:17;;;;;;;4.87;4.57;;;16.70;89.10;;;;;;4908129;29;20494;-78
2023/03/22 11:29:47;;;;;;;4.40;4.20;;;16.80;87.90;;;;;;4907962;29;20490;-78
2023/03/22 11:32:37;;;;;;;4.53;2.40;;;17.00;89.00;;;;;;4907317;29;20512;-79
2023/03/22 11:35:15;;;;;;;3.00;2.80;;;17.20;88.40;;;;;;4921819;29;20502;-78
2023/03/22 11:37:51;;;;;;;4.90;4.60;;;17.30;86.60;;;;;;4907685;29;20422;-79
2023/03/22 11:40:25;;;;;;;5.50;5.20;;;17.40;85.80;;;;;;4905796;29;20482;-78
2023/03/22 11:43:17;;;;;;;2.57;2.37;;;17.50;84.90;;;;;;5097764;27;20531;-74
2023/03/22 11:45:44;;;;;;;3.13;2.93;;;17.40;83.60;;;;;;5084878;28;20399;-75
2023/03/22 11:48:20;;;;;;;3.27;3.13;;;17.40;84.10;;;;;;5088713;28;20406;-76
2023/03/22 11:50:47;;;;;;;4.30;4.17;;;17.30;83.60;;;;;;5082986;28;20469;-75
2023/03/22 11:53:16;;;;;;;2.80;2.70;;;17.10;85.00;;;;;;5088288;28;20494;-76
2023/03/22 11:55:44;;;;;;;3.00;2.80;;;17.10;84.70;;;;;;5070362;28;20406;-75
2023/03/22 11:58:38;;;;;;;3.53;3.30;;;16.90;83.80;;;;;;5092040;28;20410;-79
2023/03/22 12:01:06;;;;;;;3.40;3.20;;;16.80;85.40;;;;;;5064970;28;20438;-80
2023/03/22 12:03:41;;;;;;;2.70;2.50;;;16.70;85.40;;;;;;5066181;28;20410;-76
2023/03/22 12:06:21;;;;;;;4.67;4.40;;;16.70;85.30;;;;;;5087776;28;20441;-78
2023/03/22 12:08:54;;;;;;;3.37;2.27;;;16.60;84.60;;;;;;5088506;28;20410;-77
2023/03/22 12:11:28;;;;;;;2.50;2.40;;;16.50;85.80;;;;;;5069947;28;20423;-76
2023/03/22 12:13:59;;;;;;;3.20;3.00;;;16.40;85.30;;;;;;5070114;28;20445;-77
2023/03/22 12:16:30;;;;;;;3.23;3.03;;;16.30;85.50;;;;;;5078392;28;20457;-77
2023/03/22 12:19:11;;;;;;;9.87;8.87;;;16.30;85.90;;;;;;5070489;28;20907;-77
2023/03/22 12:21:44;;;;;;;3.90;3.70;;;16.30;86.50;;;;;;5087744;28;21015;-77
2023/03/22 12:24:26;;;;;;;3.70;3.40;;;16.20;87.80;;;;;;5069978;28;20409;-77
2023/03/22 12:27:09;;;;;;;3.70;3.50;;;16.20;87.70;;;;;;5086947;28;20391;-74
2023/03/22 12:29:38;;;;;;;3.67;3.47;;;16.10;86.30;;;;;;5086733;28;20462;-76
2023/03/22 12:32:24;;;;;;;3.90;3.70;;;16.10;86.20;;;;;;5087297;28;20745;-76
2023/03/22 12:34:51;;;;;;;3.73;3.57;;;16.10;87.50;;;;;;5087379;28;20413;-75
2023/03/22 12:37:23;;;;;;;4.63;3.60;;;16.10;86.80;;;;;;5087479;28;20421;-79
2023/03/22 12:40:04;;;;;;;2.47;2.37;;;16.10;86.60;;;;;;5083267;28;20413;-79
2023/03/22 12:42:52;;;;;;;2.83;2.40;;;16.10;86.40;;;;;;5066730;28;20481;-78
2023/03/22 12:45:24;;;;;;;2.97;2.67;;;16.10;87.20;;;;;;5059869;28;20431;-79
2023/03/22 12:48:08;;;;;;;2.93;2.73;;;16.00;86.70;;;;;;5062006;28;20409;-79
2023/03/22 12:50:43;;;;;;;3.13;3.03;;;16.00;87.80;;;;;;5063175;28;20403;-75
2023/03/22 12:53:17;;;;;;;3.17;2.40;;;16.10;88.00;;;;;;5059819;28;20426;-75
2023/03/22 12:55:46;;;;;;;2.50;2.40;;;16.00;86.20;;;;;;5054186;28;20738;-77
2023/03/22 12:58:17;;;;;;;2.93;2.73;;;15.90;86.50;;;;;;5042809;28;20404;-77
2023/03/22 13:00:58;;;;;;;2.00;1.90;;;15.90;85.70;;;;;;5054025;28;20393;-77
2023/03/22 13:03:36;;;;;;;2.37;2.17;;;15.80;85.10;;;;;;5052523;28;20399;-77